createdAt,value
2024-02-11T08:19:12.810Z,72.90
2024-02-11T08:21:45.040Z,72.90
2024-02-11T08:24:27.156Z,72.90
2024-02-11T08:26:59.392Z,73.10
2024-02-11T08:29:26.534Z,73.10
2024-02-11T08:32:01.492Z,73.10
2024-02-11T08:34:40.951Z,73.30
2024-02-11T08:37:13.942Z,72.90
2024-02-11T08:39:41.402Z,73.00
2024-02-11T08:42:33.088Z,72.90
2024-02-11T08:45:32.304Z,73.00
2024-02-11T08:48:01.708Z,72.90
2024-02-11T08:50:30.691Z,73.00
2024-02-11T08:52:57.757Z,73.00
2024-02-11T08:55:24.558Z,72.90
2024-02-11T08:57:51.500Z,73.10
2024-02-11T09:00:19.821Z,72.70
2024-02-11T09:02:47.657Z,72.90
2024-02-11T09:05:14.765Z,72.80
2024-02-11T09:07:43.977Z,72.90
2024-02-11T09:10:14.881Z,72.90
2024-02-11T09:12:43.276Z,72.80
2024-02-11T09:15:12.098Z,72.70
2024-02-11T09:17:45.088Z,72.80
2024-02-11T09:20:17.124Z,72.90
2024-02-11T09:22:44.526Z,72.60
2024-02-11T09:25:13.071Z,72.60
2024-02-11T09:27:39.946Z,72.50
2024-02-11T09:30:08.955Z,72.30
2024-02-11T09:32:36.313Z,72.40
2024-02-11T09:35:04.781Z,72.40
2024-02-11T09:37:34.646Z,72.50
2024-02-11T09:40:09.066Z,72.40
2024-02-11T09:42:36.424Z,72.50
2024-02-11T09:45:06.206Z,72.60
2024-02-11T09:47:35.347Z,72.70
2024-02-11T09:50:07.991Z,72.80
2024-02-11T09:52:34.910Z,72.50
2024-02-11T09:55:03.745Z,72.40
2024-02-11T09:57:30.602Z,72.60
2024-02-11T09:59:57.450Z,72.40
2024-02-11T10:02:25.216Z,72.30
2024-02-11T10:05:01.172Z,72.30
2024-02-11T10:07:28.890Z,72.10
2024-02-11T10:09:59.965Z,72.20
2024-02-11T10:12:31.965Z,72.30
2024-02-11T10:15:05.698Z,71.60
2024-02-11T10:21:40.865Z,71.60
2024-02-11T10:24:36.355Z,72.00
2024-02-11T10:27:08.898Z,71.90
2024-02-11T10:29:36.591Z,71.70
2024-02-11T10:32:15.803Z,71.80
2024-02-11T10:34:56.604Z,71.70
2024-02-11T10:38:12.281Z,71.60
2024-02-11T10:41:02.209Z,71.40
2024-02-11T10:47:22.728Z,71.70
2024-02-11T10:50:11.750Z,71.70
2024-02-11T10:53:19.064Z,71.80
2024-02-11T11:00:15.661Z,71.70
2024-02-11T11:03:34.215Z,71.70
2024-02-11T11:10:55.465Z,71.90
2024-02-11T11:31:56.547Z,70.60
2024-02-11T11:34:29.040Z,71.00
2024-02-11T11:37:16.108Z,70.80
2024-02-11T11:40:34.726Z,71.00
2024-02-11T11:43:27.459Z,69.50
2024-02-11T11:47:06.203Z,70.40
2024-02-11T11:49:56.637Z,70.00
2024-02-11T11:52:28.446Z,69.90
2024-02-11T11:55:01.553Z,69.90
2024-02-11T11:57:32.656Z,69.80
2024-02-11T12:00:07.976Z,69.10
2024-02-11T12:02:37.699Z,69.50
2024-02-11T12:05:10.508Z,69.50
2024-02-11T12:07:39.915Z,69.60
2024-02-11T12:10:35.620Z,70.10
2024-02-11T12:13:04.717Z,69.90
2024-02-11T12:15:32.174Z,69.80
2024-02-11T12:18:02.402Z,69.50
2024-02-11T12:20:53.664Z,69.60
2024-02-11T12:23:49.074Z,68.60
2024-02-11T12:26:42.568Z,68.90
2024-02-11T12:29:09.498Z,68.60
2024-02-11T12:31:46.056Z,69.40
2024-02-11T12:34:58.330Z,68.50
2024-02-11T12:37:47.599Z,69.00
2024-02-11T12:40:23.569Z,68.90
2024-02-11T12:43:37.879Z,68.00
2024-02-11T12:46:10.019Z,67.70
2024-02-11T12:48:51.070Z,67.70
2024-02-11T12:51:28.054Z,67.30
2024-02-11T12:54:19.722Z,68.10
2024-02-11T12:57:17.534Z,67.30
2024-02-11T12:59:55.952Z,67.40
2024-02-11T13:02:24.803Z,67.40
2024-02-11T13:05:32.084Z,67.40
2024-02-11T13:07:59.171Z,66.80
2024-02-11T13:10:26.937Z,67.60
2024-02-11T13:12:54.126Z,66.80
2024-02-11T13:15:23.779Z,67.00
2024-02-11T13:17:51.231Z,67.00
2024-02-11T13:20:22.971Z,66.30
2024-02-11T13:22:50.926Z,67.10
2024-02-11T13:25:21.755Z,67.80
2024-02-11T13:27:48.885Z,67.90
2024-02-11T13:30:16.276Z,68.00
2024-02-11T13:32:44.151Z,67.00
2024-02-11T13:35:13.154Z,67.40
2024-02-11T13:37:43.368Z,67.90
2024-02-11T13:40:13.324Z,67.90
2024-02-11T13:42:44.196Z,67.70
2024-02-11T13:45:14.248Z,67.40
2024-02-11T13:47:45.089Z,67.40
2024-02-11T13:50:12.345Z,67.20
2024-02-11T13:52:41.379Z,67.40
2024-02-11T13:55:11.136Z,67.50
2024-02-11T13:57:44.836Z,67.80
2024-02-11T14:00:13.186Z,68.10
2024-02-11T14:02:44.464Z,67.80
2024-02-11T14:05:11.792Z,68.10
2024-02-11T14:07:41.363Z,67.60
2024-02-11T14:10:13.365Z,67.90
2024-02-11T14:12:42.827Z,67.80
2024-02-11T14:15:16.176Z,67.60
2024-02-11T14:17:51.553Z,67.60
2024-02-11T14:20:22.278Z,67.60
2024-02-11T14:22:50.736Z,67.90
2024-02-11T14:25:20.190Z,67.70
2024-02-11T14:27:53.435Z,67.10
2024-02-11T14:30:21.031Z,67.40
2024-02-11T14:32:50.387Z,67.40
2024-02-11T14:35:22.348Z,67.10
2024-02-11T14:37:49.950Z,67.10
2024-02-11T14:40:18.509Z,67.40
2024-02-11T14:42:46.969Z,67.10
2024-02-11T14:45:14.377Z,67.50
2024-02-11T14:47:42.146Z,67.40
2024-02-11T14:50:10.523Z,66.30
2024-02-11T14:52:38.526Z,66.80
2024-02-11T14:55:07.516Z,67.20
2024-02-11T14:57:35.374Z,67.30
2024-02-11T15:00:03.709Z,66.90
2024-02-11T15:02:31.182Z,67.40
2024-02-11T15:04:58.533Z,67.10
2024-02-11T15:07:26.765Z,67.00
2024-02-11T15:09:56.617Z,67.10
2024-02-11T15:12:26.871Z,67.00
2024-02-11T15:14:56.033Z,67.20
2024-02-11T15:17:23.158Z,66.90
2024-02-11T15:19:50.287Z,67.20
2024-02-11T15:22:17.562Z,66.90
2024-02-11T15:24:46.175Z,67.20
2024-02-11T15:27:15.629Z,66.80
2024-02-11T15:29:44.640Z,66.90
2024-02-11T15:32:12.113Z,66.60
2024-02-11T15:34:42.294Z,67.00
2024-02-11T15:37:12.062Z,66.90
2024-02-11T15:39:41.154Z,67.20
2024-02-11T15:42:12.176Z,67.20
2024-02-11T15:44:40.923Z,66.90
2024-02-11T15:47:23.293Z,67.00
2024-02-11T15:49:57.128Z,66.80
2024-02-11T15:52:26.716Z,66.50
2024-02-11T15:54:56.600Z,66.40
2024-02-11T15:57:26.196Z,66.50
2024-02-11T15:59:53.735Z,66.60
2024-02-11T16:02:20.716Z,66.30
2024-02-11T16:04:47.842Z,65.50
2024-02-11T16:07:23.172Z,66.30
2024-02-11T16:09:50.352Z,66.30
2024-02-11T16:12:23.208Z,65.60
2024-02-11T16:14:55.663Z,66.30
2024-02-11T16:17:25.292Z,66.40
2024-02-11T16:19:52.412Z,66.30
2024-02-11T16:22:22.224Z,66.60
2024-02-11T16:24:52.139Z,66.80
2024-02-11T16:27:24.739Z,66.50
2024-02-11T16:29:51.954Z,66.60
2024-02-11T16:32:22.770Z,66.60
2024-02-11T16:34:55.369Z,66.50
2024-02-11T16:37:36.658Z,67.00
2024-02-11T16:40:15.694Z,66.40
2024-02-11T16:42:54.057Z,66.40
2024-02-11T16:45:25.564Z,66.40
2024-02-11T16:49:06.610Z,66.30
2024-02-11T16:55:29.150Z,65.80
2024-02-11T16:58:09.250Z,66.10
2024-02-11T17:05:09.650Z,65.90
2024-02-11T17:08:05.971Z,66.10
2024-02-11T17:10:32.945Z,66.00
2024-02-11T17:12:59.791Z,66.20
2024-02-11T17:15:26.783Z,66.50
2024-02-11T17:17:53.891Z,66.20
2024-02-11T17:20:25.585Z,65.80
2024-02-11T17:22:55.272Z,65.90
2024-02-11T17:25:22.856Z,65.80
2024-02-11T17:27:51.298Z,65.90
2024-02-11T17:30:18.808Z,65.90
2024-02-11T17:32:52.140Z,65.70
2024-02-11T17:35:35.964Z,65.80
2024-02-11T17:38:03.017Z,65.80
2024-02-11T17:40:31.161Z,66.20
2024-02-11T17:42:59.723Z,66.10
2024-02-11T17:45:27.565Z,65.80
2024-02-11T17:47:55.714Z,65.90
2024-02-11T17:50:23.075Z,66.00
2024-02-11T17:52:50.470Z,66.00
2024-02-11T17:55:18.265Z,66.10
2024-02-11T17:57:45.672Z,66.00
2024-02-11T18:00:19.438Z,65.90
2024-02-11T18:02:48.055Z,66.10
2024-02-11T18:05:15.308Z,66.00
2024-02-11T18:07:47.897Z,66.00
2024-02-11T18:10:18.656Z,66.20
2024-02-11T18:12:45.924Z,66.00
2024-02-11T18:15:17.815Z,66.30
2024-02-11T18:17:49.330Z,66.40
2024-02-11T18:20:17.634Z,66.50
2024-02-11T18:22:45.905Z,66.00
2024-02-11T18:25:20.636Z,66.30
2024-02-11T18:27:57.333Z,66.30
2024-02-11T18:30:25.044Z,66.60
2024-02-11T18:32:53.267Z,66.50
2024-02-11T18:35:23.510Z,66.60
2024-02-11T18:37:50.960Z,66.70
2024-02-11T18:40:23.962Z,66.50
2024-02-11T18:42:51.262Z,66.60
2024-02-11T18:45:18.505Z,66.50
2024-02-11T18:47:47.512Z,66.40
2024-02-11T18:50:14.916Z,66.70
2024-02-11T18:52:49.130Z,66.50
2024-02-11T18:55:16.204Z,66.70
2024-02-11T18:57:44.771Z,66.60
2024-02-11T19:00:17.759Z,66.70
2024-02-11T19:02:45.747Z,66.60
2024-02-11T19:05:24.468Z,66.50
2024-02-11T19:08:14.077Z,66.50
2024-02-11T19:10:46.487Z,66.20
2024-02-11T19:13:13.640Z,66.50
2024-02-11T19:15:42.210Z,66.60
2024-02-11T19:18:12.357Z,66.90
2024-02-11T19:20:47.779Z,66.80
2024-02-11T19:23:18.259Z,67.00
2024-02-11T19:25:46.824Z,67.00
2024-02-11T19:28:18.756Z,67.20
2024-02-11T19:30:55.242Z,66.70
2024-02-11T19:33:23.259Z,66.90
2024-02-11T19:36:06.613Z,67.10
2024-02-11T19:38:37.081Z,66.90
2024-02-11T19:41:10.581Z,67.20
2024-02-11T19:43:42.548Z,66.90
2024-02-11T19:46:12.928Z,67.00
2024-02-11T19:48:48.387Z,66.90
2024-02-11T19:51:25.472Z,66.90
2024-02-11T19:54:04.374Z,66.90
2024-02-11T19:56:39.245Z,67.00
2024-02-11T19:59:09.220Z,66.80
2024-02-11T20:01:38.653Z,67.00
2024-02-11T20:04:05.735Z,67.00
2024-02-11T20:06:40.151Z,67.20
2024-02-11T20:09:21.344Z,67.30
2024-02-11T20:11:57.096Z,67.10
2024-02-11T20:14:27.338Z,67.10
2024-02-11T20:17:37.731Z,67.00
2024-02-11T20:20:19.912Z,67.40
2024-02-11T20:23:07.450Z,67.20
2024-02-11T20:29:06.352Z,67.30
2024-02-11T20:38:40.102Z,67.30
2024-02-11T20:41:05.563Z,67.30
2024-02-11T20:44:13.145Z,67.60
2024-02-11T20:47:03.179Z,67.50
2024-02-11T20:49:59.899Z,67.50
2024-02-11T20:53:27.591Z,67.40
2024-02-11T20:56:04.307Z,67.50
2024-02-11T20:58:50.392Z,67.60
2024-02-11T21:01:34.046Z,67.50
2024-02-11T21:04:21.172Z,67.60
2024-02-11T21:07:22.607Z,67.60
2024-02-11T21:10:23.376Z,67.70
2024-02-11T21:12:56.436Z,67.70
2024-02-11T21:15:38.880Z,67.60
2024-02-11T21:18:16.133Z,67.70
2024-02-11T21:20:49.437Z,67.70
2024-02-11T21:23:19.791Z,67.80
2024-02-11T21:25:52.112Z,67.70
2024-02-11T21:28:24.274Z,68.10
2024-02-11T21:31:01.440Z,67.80
2024-02-11T21:33:35.413Z,68.10
2024-02-11T21:36:05.054Z,67.90
2024-02-11T21:38:32.630Z,68.10
2024-02-11T21:41:23.950Z,67.80
2024-02-11T21:43:55.136Z,67.80
2024-02-11T21:46:24.827Z,68.00
2024-02-11T21:49:03.851Z,68.00
2024-02-11T21:51:38.083Z,67.90
2024-02-11T21:54:13.525Z,67.90
2024-02-11T21:57:03.109Z,67.80
2024-02-11T21:59:39.062Z,67.90
2024-02-11T22:02:24.210Z,68.00
2024-02-11T22:05:04.615Z,67.80
2024-02-11T22:07:47.364Z,67.90
2024-02-11T22:10:14.793Z,67.90
2024-02-11T22:12:51.422Z,67.90
2024-02-11T22:15:21.732Z,67.80
2024-02-11T22:17:54.037Z,67.80
2024-02-11T22:20:27.081Z,67.80
2024-02-11T22:22:57.456Z,67.90
2024-02-11T22:25:24.713Z,67.80
2024-02-11T22:27:57.034Z,68.00
2024-02-11T22:30:24.164Z,67.80
2024-02-11T22:32:54.541Z,67.80
2024-02-11T22:35:22.551Z,67.60
2024-02-11T22:37:51.326Z,68.00
2024-02-11T22:40:25.642Z,68.10
2024-02-11T22:42:56.072Z,68.10
2024-02-11T22:45:29.295Z,67.90
2024-02-11T22:47:56.704Z,68.10
2024-02-11T22:50:29.761Z,68.10
2024-02-11T22:53:02.362Z,68.10
2024-02-11T22:55:34.989Z,67.90
2024-02-11T22:58:03.062Z,67.80
2024-02-11T23:00:36.010Z,67.80
2024-02-11T23:03:09.983Z,67.90
2024-02-11T23:05:37.706Z,67.70
2024-02-11T23:08:14.971Z,68.00
2024-02-11T23:10:43.412Z,67.80
2024-02-11T23:13:10.531Z,67.70
2024-02-11T23:15:37.890Z,67.80
2024-02-11T23:18:08.862Z,67.80
2024-02-11T23:20:36.538Z,67.80
2024-02-11T23:23:03.624Z,67.90
2024-02-11T23:25:30.862Z,67.80
2024-02-11T23:27:59.516Z,67.50
2024-02-11T23:30:26.958Z,67.80
2024-02-11T23:32:57.553Z,67.50
2024-02-11T23:35:25.527Z,67.60
2024-02-11T23:37:56.808Z,67.80
2024-02-11T23:40:25.606Z,67.80
2024-02-11T23:42:54.702Z,67.90
2024-02-11T23:45:23.341Z,67.90
2024-02-11T23:47:50.705Z,67.90
2024-02-11T23:50:20.348Z,67.60
2024-02-11T23:52:51.417Z,67.90
2024-02-11T23:55:24.559Z,68.00
2024-02-11T23:57:54.238Z,68.00
